Ninove, Belgium

7:21 AM CEST on September 28, 2016 (GMT +0200)
Hoevestraat | | Change Station

Elev 114 ft 50.79 °N, 4.07 °E | Updated 16 seconds ago

Overcast
Overcast
60.8 °F
Feels Like 60.8 °F
N
1.9
Wind Variable Wind from SW
Gusts 5.6 mph

Today
High -- | Low -- °F
--% Chance of Precip.
Yesterday
High -- | Low -- °F
Precip. -- in
Pressure 30.30 in
Visibility 6.2 miles
Clouds Overcast 1300 ft
Dew Point 56 °F
Humidity 84%
Rainfall Not available.
Snow Depth Not available.
7:40 AM 7:27 PM
Waning Crescent, 7% visible
METAR EBCV 280455Z AUTO 21009KT 9999 OVC013/// 16/12 Q1026 GRN
Pressure 30.30 in
Visibility 6.2 miles
Clouds Overcast 1300 ft
Dew Point 56 °F
Humidity 84%
Rainfall Not available.
Snow Depth Not available.
7:40 AM 7:27 PM
Waning Crescent, 7% visible
METAR EBCV 280455Z AUTO 21009KT 9999 OVC013/// 16/12 Q1026 GRN

10-Day Weather Forecast

×

Almanac

Astronomy

Sep. 28, 2016 Rise Set
Actual Time
Civil Twilight
Nautical Twilight
Astronomical Twilight
Moon
Length of Visible Light
Length of Day
Tomorrow will be .
, % of the Moon is Illuminated

Today's Extremes

Country Highs Country Lows

Community

WunderPhotos

Upload Photos

1,942,213 photos uploaded!

WunderBlog® & News

Nearby

Air Quality

  Air Quality AQ Index Pollutant
Not available.

Snow Depth

Station Depth Elevation

Earthquake Activity

City Distance Mag. Time & Date
Minimum magnitude displayed is 2.5.

Coastal Water Temperatures

Place Temperature

Stations

Nearby Weather Stations

Station Location Temp. Windchill Dew Point Humidity Wind Precip. Elev Updated Type